Time;durP1;ratioP1;P1;durP2;ratioP2;P2;SDS_P1;SDS_P2;PMS_P1;PMS_P2;Temp;Humidity;BMP_temperature;BMP_pressure;BME280_temperature;BME280_humidity;BME280_pressure;Samples;Min_cycle;Max_cycle;Signal;HPM_P1;HPM_P2
2023/12/08 00:02:16;;;;;;;8.63;7.03;;;5.10;99.90;;;;;;5116680;28;20223;-40
2023/12/08 00:04:42;;;;;;;9.50;7.80;;;5.10;99.90;;;;;;5115540;28;20257;-40
2023/12/08 00:07:07;;;;;;;8.57;7.67;;;5.10;99.90;;;;;;5113661;28;20843;-41
2023/12/08 00:09:33;;;;;;;11.93;9.23;;;5.10;99.90;;;;;;5113146;28;20180;-39
2023/12/08 00:11:58;;;;;;;13.37;10.17;;;5.10;99.90;;;;;;5113473;28;20204;-40
2023/12/08 00:14:24;;;;;;;10.73;9.00;;;5.10;99.90;;;;;;5113991;28;20583;-40
2023/12/08 00:16:49;;;;;;;10.43;8.27;;;5.10;99.90;;;;;;5114375;28;20187;-40
2023/12/08 00:19:15;;;;;;;21.93;13.80;;;5.10;99.90;;;;;;5115176;28;20260;-40
2023/12/08 00:21:41;;;;;;;24.80;14.90;;;5.10;99.90;;;;;;5115450;28;20219;-40
2023/12/08 00:24:06;;;;;;;18.50;12.50;;;5.10;99.90;;;;;;5114604;28;20185;-39
2023/12/08 00:26:32;;;;;;;16.80;11.23;;;5.10;99.90;;;;;;5114773;28;20211;-40
2023/12/08 00:28:58;;;;;;;13.37;10.47;;;5.00;99.90;;;;;;5115064;28;20501;-39
2023/12/08 00:31:23;;;;;;;14.47;9.90;;;5.00;99.90;;;;;;5116026;28;20194;-40
2023/12/08 00:33:49;;;;;;;20.73;13.97;;;5.10;99.90;;;;;;5115684;28;20283;-40
2023/12/08 00:36:16;;;;;;;20.40;14.00;;;5.00;99.90;;;;;;5115901;28;20451;-39
2023/12/08 00:38:44;;;;;;;20.57;13.83;;;5.10;99.90;;;;;;5116200;28;20216;-40
2023/12/08 00:41:10;;;;;;;20.13;12.43;;;5.00;99.90;;;;;;5116445;28;20703;-40
2023/12/08 00:43:36;;;;;;;15.77;11.73;;;5.00;99.90;;;;;;5098475;28;20433;-40
2023/12/08 00:46:02;;;;;;;12.77;9.50;;;5.00;99.90;;;;;;5116296;28;20468;-42
2023/12/08 00:48:27;;;;;;;9.70;8.17;;;5.00;99.90;;;;;;5116750;28;20217;-41
2023/12/08 00:50:53;;;;;;;11.57;7.83;;;5.00;99.90;;;;;;5119125;28;20243;-40
2023/12/08 00:53:19;;;;;;;8.73;7.57;;;5.00;99.90;;;;;;5120668;28;20261;-41
2023/12/08 00:55:44;;;;;;;10.10;8.17;;;4.90;99.90;;;;;;5120258;28;20207;-40
2023/12/08 00:58:11;;;;;;;9.67;7.83;;;4.90;99.90;;;;;;5100473;28;20507;-42
2023/12/08 01:00:37;;;;;;;10.80;8.63;;;4.90;99.90;;;;;;5119651;28;20278;-41
2023/12/08 01:03:03;;;;;;;9.37;8.40;;;4.90;99.90;;;;;;5120248;28;20460;-41
2023/12/08 01:05:28;;;;;;;9.07;8.17;;;4.90;99.90;;;;;;5119718;28;20223;-42
2023/12/08 01:07:54;;;;;;;10.47;7.57;;;4.90;1.00;;;;;;5118719;28;20525;-42
2023/12/08 01:10:20;;;;;;;8.23;7.40;;;4.90;1.00;;;;;;5118833;28;20695;-41
2023/12/08 01:12:46;;;;;;;8.70;7.80;;;4.90;99.90;;;;;;5118516;28;20442;-42
2023/12/08 01:15:12;;;;;;;10.03;8.00;;;5.00;1.00;;;;;;5119564;28;20414;-40
2023/12/08 01:17:37;;;;;;;8.03;7.20;;;5.00;99.90;;;;;;5120256;28;20179;-41
2023/12/08 01:20:05;;;;;;;7.43;6.73;;;5.00;99.90;;;;;;5119608;28;20377;-40
2023/12/08 01:22:30;;;;;;;8.37;7.20;;;5.00;99.90;;;;;;5120025;28;20184;-42
2023/12/08 01:24:56;;;;;;;7.80;7.10;;;5.10;99.90;;;;;;5119783;28;20884;-43
2023/12/08 01:27:22;;;;;;;8.17;7.40;;;5.10;99.90;;;;;;5119398;28;20197;-41
2023/12/08 01:29:48;;;;;;;8.27;7.30;;;5.10;99.90;;;;;;5118756;28;20171;-39
2023/12/08 01:32:13;;;;;;;9.60;7.90;;;5.10;99.90;;;;;;5119516;28;20721;-40
2023/12/08 01:34:39;;;;;;;8.63;7.73;;;5.10;99.90;;;;;;5118182;28;20231;-38
2023/12/08 01:37:04;;;;;;;9.57;8.60;;;5.10;99.90;;;;;;5118821;28;20244;-41
2023/12/08 01:39:30;;;;;;;8.43;7.60;;;5.10;99.90;;;;;;5119552;28;20614;-41
2023/12/08 01:41:56;;;;;;;9.03;7.83;;;5.10;99.90;;;;;;5118336;28;20175;-40
2023/12/08 01:44:21;;;;;;;8.30;7.50;;;5.10;99.90;;;;;;5101674;28;20168;-38
2023/12/08 01:46:47;;;;;;;9.70;8.70;;;5.10;99.90;;;;;;5118583;28;20176;-38
2023/12/08 01:49:14;;;;;;;9.23;7.67;;;5.10;1.00;;;;;;5119061;28;20214;-39
2023/12/08 01:51:40;;;;;;;7.73;6.93;;;5.10;1.00;;;;;;5099741;28;20766;-38
2023/12/08 01:54:06;;;;;;;9.10;7.93;;;5.10;1.00;;;;;;5119000;28;20823;-41
2023/12/08 01:56:31;;;;;;;9.30;7.83;;;5.10;1.00;;;;;;5099675;28;20444;-39
2023/12/08 01:58:57;;;;;;;9.17;8.30;;;5.10;1.00;;;;;;5100220;28;20176;-40
2023/12/08 02:01:23;;;;;;;10.30;8.43;;;5.10;1.00;;;;;;5116855;28;20223;-39
2023/12/08 02:03:50;;;;;;;8.97;8.07;;;5.10;1.00;;;;;;5099635;28;20192;-39
2023/12/08 02:06:17;;;;;;;10.50;8.40;;;5.10;1.00;;;;;;5099549;28;20260;-41
2023/12/08 02:08:45;;;;;;;9.00;8.10;;;5.10;1.00;;;;;;5118192;28;20425;-39
2023/12/08 02:11:11;;;;;;;10.07;7.50;;;5.10;1.00;;;;;;5117758;28;20512;-40
2023/12/08 02:13:36;;;;;;;8.00;7.03;;;5.10;1.00;;;;;;5116955;28;20691;-39
2023/12/08 02:16:08;;;;;;;9.90;7.27;;;5.10;1.00;;;;;;5118079;28;20276;-40
2023/12/08 02:18:34;;;;;;;8.73;7.83;;;5.10;1.00;;;;;;5118728;28;20215;-40
2023/12/08 02:21:01;;;;;;;10.00;8.10;;;5.20;1.00;;;;;;5099975;28;20453;-40
2023/12/08 02:23:26;;;;;;;8.77;7.93;;;5.20;1.00;;;;;;5100594;28;20799;-41
2023/12/08 02:25:52;;;;;;;7.90;7.10;;;5.20;1.00;;;;;;5117774;28;20469;-39
2023/12/08 02:28:18;;;;;;;8.80;7.33;;;5.20;1.00;;;;;;5118155;28;20468;-39
2023/12/08 02:30:44;;;;;;;10.17;8.30;;;5.20;1.00;;;;;;5082635;28;20466;-41
2023/12/08 02:33:16;;;;;;;8.40;7.60;;;5.20;1.00;;;;;;5118106;28;20424;-40
2023/12/08 02:35:43;;;;;;;9.53;8.10;;;5.20;1.00;;;;;;5099209;28;20243;-40
2023/12/08 02:38:10;;;;;;;9.40;8.37;;;5.20;1.00;;;;;;5100087;28;20494;-40
2023/12/08 02:40:35;;;;;;;10.13;7.63;;;5.20;1.00;;;;;;5099747;28;20524;-40
2023/12/08 02:43:02;;;;;;;8.53;7.63;;;5.10;1.00;;;;;;5116971;28;20512;-40
2023/12/08 02:45:28;;;;;;;8.13;7.30;;;5.10;1.00;;;;;;5117770;28;20584;-41
2023/12/08 02:47:53;;;;;;;8.37;7.20;;;5.10;1.00;;;;;;5118257;28;20666;-42
2023/12/08 02:50:19;;;;;;;9.63;8.40;;;5.10;1.00;;;;;;5115491;28;20251;-39
2023/12/08 02:52:44;;;;;;;8.33;7.40;;;5.10;1.00;;;;;;5116768;28;20176;-40
2023/12/08 02:55:10;;;;;;;8.97;8.07;;;5.10;1.00;;;;;;5117839;28;20183;-40
2023/12/08 02:57:36;;;;;;;7.80;7.00;;;5.10;1.00;;;;;;5117516;28;20608;-39
2023/12/08 03:00:01;;;;;;;7.80;7.00;;;5.10;1.00;;;;;;5117437;28;20239;-41
2023/12/08 03:02:27;;;;;;;8.00;7.20;;;5.00;1.00;;;;;;5116698;28;20180;-40
2023/12/08 03:04:52;;;;;;;9.07;7.00;;;5.00;1.00;;;;;;5117222;28;20195;-39
2023/12/08 03:07:18;;;;;;;8.33;7.53;;;5.10;1.00;;;;;;5115564;28;20534;-39
2023/12/08 03:09:43;;;;;;;7.77;6.83;;;5.10;1.00;;;;;;5097766;28;20183;-40
2023/12/08 03:12:09;;;;;;;8.63;7.10;;;5.10;1.00;;;;;;5116559;28;20196;-40
2023/12/08 03:14:50;;;;;;;7.90;6.97;;;5.10;1.00;;;;;;5116251;28;20167;-38
2023/12/08 03:17:16;;;;;;;8.23;6.63;;;5.10;1.00;;;;;;5115236;28;20247;-43
2023/12/08 03:19:41;;;;;;;8.63;7.83;;;5.10;1.00;;;;;;5116073;28;20524;-38
2023/12/08 03:22:07;;;;;;;7.80;6.43;;;5.10;1.00;;;;;;5115735;28;20217;-42
2023/12/08 03:24:32;;;;;;;8.33;7.23;;;5.10;1.00;;;;;;5096286;28;20641;-39
2023/12/08 03:26:58;;;;;;;8.43;7.43;;;5.00;1.00;;;;;;5115389;28;20262;-40
2023/12/08 03:29:24;;;;;;;8.97;8.07;;;5.00;1.00;;;;;;5115291;28;20172;-39
2023/12/08 03:31:49;;;;;;;8.00;7.17;;;5.00;1.00;;;;;;5115841;28;20180;-39
2023/12/08 03:34:15;;;;;;;9.03;7.77;;;5.00;1.00;;;;;;5115133;28;20320;-40
2023/12/08 03:36:40;;;;;;;8.90;7.20;;;5.00;1.00;;;;;;5114190;28;20192;-39
2023/12/08 03:39:06;;;;;;;9.33;8.33;;;5.00;1.00;;;;;;5116500;28;20206;-40
2023/12/08 03:41:32;;;;;;;8.83;7.40;;;5.00;1.00;;;;;;5117036;28;20564;-42
2023/12/08 03:43:57;;;;;;;8.57;7.77;;;5.00;1.00;;;;;;5116439;28;20414;-40
2023/12/08 03:46:23;;;;;;;8.07;7.27;;;4.90;1.00;;;;;;5115689;28;20215;-40
2023/12/08 03:48:49;;;;;;;12.73;8.60;;;4.90;1.00;;;;;;5115595;28;20545;-39
2023/12/08 03:51:15;;;;;;;7.33;6.60;;;4.90;1.00;;;;;;5116996;28;20175;-39
2023/12/08 03:53:40;;;;;;;8.30;7.50;;;4.90;1.00;;;;;;5117090;28;20436;-40
2023/12/08 03:56:07;;;;;;;7.50;6.80;;;4.90;1.00;;;;;;5116741;28;20194;-41
2023/12/08 03:58:32;;;;;;;9.20;7.70;;;4.90;1.00;;;;;;5116218;28;20374;-39
2023/12/08 04:00:58;;;;;;;7.57;5.90;;;4.90;1.00;;;;;;5115517;28;20508;-39
2023/12/08 04:03:23;;;;;;;8.30;7.50;;;4.90;1.00;;;;;;5097534;28;20586;-40
2023/12/08 04:05:49;;;;;;;8.17;7.07;;;4.90;1.00;;;;;;5116762;28;20207;-40
2023/12/08 04:08:15;;;;;;;8.23;7.07;;;4.90;1.00;;;;;;5117010;28;20172;-40
2023/12/08 04:10:41;;;;;;;8.10;7.13;;;5.00;1.00;;;;;;5117649;28;20179;-41
2023/12/08 04:13:06;;;;;;;7.90;7.10;;;5.00;1.00;;;;;;5116792;28;20507;-40
2023/12/08 04:15:32;;;;;;;8.53;7.13;;;5.00;1.00;;;;;;5116449;28;20176;-40
2023/12/08 04:17:57;;;;;;;7.37;6.67;;;5.00;1.00;;;;;;5115783;28;20236;-40
2023/12/08 04:20:24;;;;;;;8.37;6.23;;;5.00;1.00;;;;;;5115032;28;20222;-39
2023/12/08 04:22:49;;;;;;;7.57;6.57;;;5.10;1.00;;;;;;5116312;28;20183;-40
2023/12/08 04:25:15;;;;;;;8.03;6.30;;;5.10;1.00;;;;;;5119335;28;20564;-39
2023/12/08 04:27:40;;;;;;;6.63;5.93;;;5.10;1.00;;;;;;5119873;28;20515;-39
2023/12/08 04:30:09;;;;;;;8.90;7.07;;;5.10;1.00;;;;;;5120325;28;20175;-39
2023/12/08 04:32:35;;;;;;;7.93;6.10;;;5.20;1.00;;;;;;5121090;28;20179;-40
2023/12/08 04:35:01;;;;;;;7.33;6.50;;;5.20;10.20;;;;;;5120536;28;20504;-40
2023/12/08 04:37:26;;;;;;;7.27;6.23;;;5.20;99.90;;;;;;5118960;28;20187;-40
2023/12/08 04:39:52;;;;;;;8.20;5.67;;;5.30;99.90;;;;;;5117990;28;20171;-42
2023/12/08 04:42:18;;;;;;;8.00;6.40;;;5.30;99.90;;;;;;5119144;28;20762;-40
2023/12/08 04:44:43;;;;;;;8.40;6.73;;;5.30;99.90;;;;;;5118560;28;20180;-40
2023/12/08 04:47:09;;;;;;;10.80;8.33;;;5.40;1.00;;;;;;5118439;28;20195;-41
2023/12/08 04:49:35;;;;;;;8.73;7.70;;;5.40;1.00;;;;;;5118177;28;20188;-40
2023/12/08 04:52:01;;;;;;;9.17;7.43;;;5.40;99.90;;;;;;5101161;28;20504;-41
2023/12/08 04:54:26;;;;;;;7.53;6.10;;;5.50;99.90;;;;;;5120767;28;20203;-40
2023/12/08 04:56:52;;;;;;;5.97;5.37;;;5.50;1.00;;;;;;5120659;28;20184;-42
2023/12/08 04:59:18;;;;;;;6.67;5.37;;;5.50;7.60;;;;;;5120613;28;20184;-42
2023/12/08 05:01:43;;;;;;;6.43;4.30;;;5.60;99.90;;;;;;5120377;28;20557;-40
2023/12/08 05:04:09;;;;;;;6.80;5.97;;;5.60;99.90;;;;;;5120214;28;20258;-40
2023/12/08 05:06:34;;;;;;;5.80;5.20;;;5.60;99.90;;;;;;5118881;28;20538;-39
2023/12/08 05:09:00;;;;;;;5.47;4.90;;;5.60;1.00;;;;;;5118763;28;20182;-42
2023/12/08 05:11:25;;;;;;;5.40;4.70;;;5.60;1.00;;;;;;5117822;28;20641;-40
2023/12/08 05:13:51;;;;;;;6.73;6.00;;;5.60;1.00;;;;;;5116567;28;20240;-42
2023/12/08 05:16:17;;;;;;;6.37;5.43;;;5.70;55.70;;;;;;5116618;28;20510;-42
2023/12/08 05:18:42;;;;;;;5.50;4.87;;;5.70;99.90;;;;;;5098348;28;20176;-40
2023/12/08 05:21:08;;;;;;;5.80;5.20;;;5.70;99.90;;;;;;5117695;28;20180;-40
2023/12/08 05:23:34;;;;;;;5.80;5.03;;;5.70;99.90;;;;;;5100136;28;20206;-41
2023/12/08 05:26:00;;;;;;;7.00;6.10;;;5.70;1.00;;;;;;5117327;28;20905;-46
2023/12/08 05:28:25;;;;;;;7.80;6.50;;;5.70;1.00;;;;;;5115553;28;20206;-41
2023/12/08 05:30:53;;;;;;;8.00;7.20;;;5.70;1.00;;;;;;5117430;28;20207;-40
2023/12/08 05:33:18;;;;;;;6.93;6.20;;;5.70;1.00;;;;;;5116683;28;20570;-41
2023/12/08 05:35:44;;;;;;;6.77;6.07;;;5.80;1.00;;;;;;5116060;28;20487;-42
2023/12/08 05:38:10;;;;;;;6.97;6.00;;;5.80;99.90;;;;;;5117660;28;20188;-43
2023/12/08 05:40:36;;;;;;;8.37;7.37;;;5.70;1.00;;;;;;5118286;28;20453;-40
2023/12/08 05:43:03;;;;;;;8.40;7.10;;;5.70;1.00;;;;;;5098359;28;20255;-40
2023/12/08 05:45:28;;;;;;;7.87;7.07;;;5.70;99.90;;;;;;5117819;28;20488;-40
2023/12/08 05:47:54;;;;;;;7.73;6.80;;;5.70;99.90;;;;;;5118220;28;20430;-39
2023/12/08 05:50:20;;;;;;;7.90;7.07;;;5.70;99.90;;;;;;5118504;28;20180;-39
2023/12/08 05:52:45;;;;;;;7.13;6.10;;;5.60;1.00;;;;;;5082448;28;20464;-41
2023/12/08 05:55:11;;;;;;;7.90;7.07;;;5.60;1.00;;;;;;5118561;28;20557;-41
2023/12/08 05:57:36;;;;;;;8.50;6.80;;;5.60;1.00;;;;;;5116681;28;20187;-45
2023/12/08 06:00:06;;;;;;;7.50;6.63;;;5.60;1.00;;;;;;5114262;28;20190;-42
2023/12/08 06:02:32;;;;;;;8.67;7.00;;;5.60;1.00;;;;;;5116774;28;20190;-43
2023/12/08 06:04:57;;;;;;;7.00;6.30;;;5.50;99.90;;;;;;5116288;28;20757;-42
2023/12/08 06:07:23;;;;;;;7.60;6.20;;;5.50;99.90;;;;;;5117485;28;20179;-40
2023/12/08 06:09:49;;;;;;;7.03;6.03;;;5.50;99.90;;;;;;5119063;28;20183;-40
2023/12/08 06:12:16;;;;;;;7.80;6.67;;;5.50;99.90;;;;;;5097420;28;20176;-41
2023/12/08 06:14:42;;;;;;;6.40;5.80;;;5.50;99.90;;;;;;5115365;28;20429;-40
2023/12/08 06:17:07;;;;;;;5.83;5.20;;;5.50;99.90;;;;;;5116842;28;20481;-43
2023/12/08 06:19:33;;;;;;;6.47;5.77;;;5.40;99.90;;;;;;5117334;28;20186;-41
2023/12/08 06:21:58;;;;;;;7.13;5.80;;;5.50;99.90;;;;;;5117135;28;20239;-40
2023/12/08 06:24:24;;;;;;;9.70;6.77;;;5.50;32.10;;;;;;5116653;28;20172;-41
2023/12/08 06:26:50;;;;;;;5.37;4.63;;;5.50;1.00;;;;;;5115677;28;20245;-40
2023/12/08 06:29:17;;;;;;;7.23;6.17;;;5.50;1.00;;;;;;5116113;28;20176;-44
2023/12/08 06:31:44;;;;;;;7.50;5.80;;;5.60;1.00;;;;;;5116398;28;20286;-40
2023/12/08 06:34:09;;;;;;;9.13;5.80;;;5.50;1.00;;;;;;5113611;28;20481;-42
2023/12/08 06:36:35;;;;;;;6.40;5.60;;;5.50;1.00;;;;;;5096014;28;20457;-42
2023/12/08 06:39:03;;;;;;;6.13;5.53;;;5.50;1.00;;;;;;5114685;28;20184;-41
2023/12/08 06:41:28;;;;;;;5.80;5.20;;;5.50;72.40;;;;;;5105480;28;20188;-40
2023/12/08 06:43:54;;;;;;;6.30;5.63;;;5.50;89.60;;;;;;5106260;28;20785;-43
2023/12/08 06:46:20;;;;;;;8.40;5.63;;;5.50;99.90;;;;;;5115721;28;20340;-41
2023/12/08 06:48:45;;;;;;;5.77;5.10;;;5.50;99.90;;;;;;5097577;28;20581;-40
2023/12/08 06:51:11;;;;;;;6.63;5.10;;;5.50;99.90;;;;;;5097978;28;20176;-42
2023/12/08 06:53:36;;;;;;;6.40;5.27;;;5.50;99.90;;;;;;5095235;28;20469;-40
2023/12/08 06:56:05;;;;;;;5.97;5.20;;;5.50;99.90;;;;;;5112835;28;20175;-42
2023/12/08 06:58:31;;;;;;;6.03;5.43;;;5.50;99.90;;;;;;5112701;28;20446;-41
2023/12/08 07:00:56;;;;;;;6.27;5.67;;;5.50;43.80;;;;;;5092871;28;20479;-41
2023/12/08 07:03:22;;;;;;;5.53;5.00;;;5.60;25.20;;;;;;5093644;28;20258;-42
2023/12/08 07:05:48;;;;;;;6.50;5.90;;;5.60;42.70;;;;;;5114498;28;20684;-42
2023/12/08 07:08:13;;;;;;;6.17;5.50;;;5.60;56.30;;;;;;5096824;28;20171;-41
2023/12/08 07:10:39;;;;;;;6.50;5.30;;;5.60;92.60;;;;;;5111440;28;20175;-41
2023/12/08 07:13:04;;;;;;;7.07;5.80;;;5.60;99.90;;;;;;5110289;28;20376;-44
2023/12/08 07:15:30;;;;;;;5.90;5.30;;;5.60;99.90;;;;;;5112653;28;20451;-41
2023/12/08 07:17:56;;;;;;;5.30;4.80;;;5.70;99.90;;;;;;5113618;28;20184;-42
2023/12/08 07:20:22;;;;;;;5.50;4.87;;;5.70;99.90;;;;;;5111659;28;20690;-41
2023/12/08 07:22:47;;;;;;;6.40;4.13;;;5.70;99.90;;;;;;5093794;28;20385;-42
2023/12/08 07:25:14;;;;;;;6.03;5.30;;;5.70;1.00;;;;;;5113388;28;20453;-42
2023/12/08 07:27:40;;;;;;;5.20;4.70;;;5.70;1.00;;;;;;5096483;28;20434;-44
2023/12/08 07:30:09;;;;;;;6.00;5.00;;;5.70;5.90;;;;;;5115320;28;20424;-41
2023/12/08 07:32:35;;;;;;;6.37;5.20;;;5.70;99.90;;;;;;5117114;28;20469;-42
2023/12/08 07:35:01;;;;;;;5.70;5.10;;;5.70;99.90;;;;;;5114667;28;20507;-43
2023/12/08 07:37:26;;;;;;;5.30;4.80;;;5.80;99.90;;;;;;5095108;28;20176;-40
2023/12/08 07:39:52;;;;;;;5.60;4.80;;;5.80;99.90;;;;;;5112582;28;20607;-40
2023/12/08 07:42:17;;;;;;;5.73;4.50;;;5.80;1.00;;;;;;5113907;28;20172;-48
2023/12/08 07:44:45;;;;;;;6.33;5.23;;;5.80;1.00;;;;;;5081587;28;20227;-42
2023/12/08 07:47:10;;;;;;;5.50;4.90;;;5.80;1.00;;;;;;5096796;28;20168;-42
2023/12/08 07:49:36;;;;;;;5.90;4.80;;;5.80;1.00;;;;;;5115724;28;20413;-42
2023/12/08 07:52:02;;;;;;;5.17;4.60;;;5.90;1.00;;;;;;5098010;28;20878;-44
2023/12/08 07:54:31;;;;;;;5.90;4.63;;;5.90;1.00;;;;;;5097700;28;20536;-42
2023/12/08 07:56:58;;;;;;;6.20;5.60;;;6.00;1.00;;;;;;5115169;28;20507;-40
2023/12/08 07:59:23;;;;;;;5.87;4.87;;;6.00;1.00;;;;;;5097403;28;20517;-40
2023/12/08 08:01:49;;;;;;;5.53;4.93;;;6.00;1.00;;;;;;5117102;28;20465;-41
2023/12/08 08:04:15;;;;;;;6.17;5.33;;;6.00;1.00;;;;;;5118935;28;20178;-42
2023/12/08 08:06:40;;;;;;;6.47;5.80;;;6.10;1.00;;;;;;5084441;28;20226;-41
2023/12/08 08:09:07;;;;;;;7.53;5.37;;;6.10;1.00;;;;;;5119426;28;20211;-43
2023/12/08 08:11:32;;;;;;;6.13;4.93;;;6.20;1.00;;;;;;5103642;28;20183;-41
2023/12/08 08:13:58;;;;;;;6.80;5.80;;;6.20;1.00;;;;;;5103403;28;20445;-40
2023/12/08 08:16:24;;;;;;;6.73;5.23;;;6.20;1.00;;;;;;5101840;28;20187;-41
2023/12/08 08:18:50;;;;;;;6.63;5.50;;;6.20;1.00;;;;;;5102729;28;20454;-43
2023/12/08 08:21:16;;;;;;;7.00;6.03;;;6.30;1.00;;;;;;5116936;28;20427;-42
2023/12/08 08:23:43;;;;;;;6.20;5.60;;;6.30;1.00;;;;;;5117219;28;20171;-41
2023/12/08 08:26:08;;;;;;;8.33;5.47;;;6.30;1.00;;;;;;5115955;28;20301;-40
2023/12/08 08:28:35;;;;;;;6.10;5.50;;;6.30;14.70;;;;;;5116345;28;20775;-42
2023/12/08 08:31:00;;;;;;;6.80;5.60;;;6.30;48.70;;;;;;5114591;28;20696;-41
2023/12/08 08:33:26;;;;;;;6.03;5.43;;;6.30;63.90;;;;;;5114259;28;20410;-41
2023/12/08 08:35:52;;;;;;;6.77;6.07;;;6.40;87.30;;;;;;5115753;28;20230;-42
2023/12/08 08:38:17;;;;;;;6.43;5.73;;;6.40;99.90;;;;;;5116437;28;20186;-40
2023/12/08 08:40:43;;;;;;;6.63;5.50;;;6.40;99.90;;;;;;5117071;28;20454;-41
2023/12/08 08:43:09;;;;;;;7.63;5.87;;;6.40;99.90;;;;;;5117662;28;20250;-41
2023/12/08 08:45:34;;;;;;;7.57;5.40;;;6.50;99.90;;;;;;5115318;28;20452;-41
2023/12/08 08:48:01;;;;;;;6.67;5.57;;;6.50;99.90;;;;;;5115759;28;20439;-42
2023/12/08 08:50:26;;;;;;;6.43;5.70;;;6.50;99.90;;;;;;5098640;28;20168;-41
2023/12/08 08:52:52;;;;;;;8.90;5.33;;;6.50;99.90;;;;;;5118108;28;20432;-43
2023/12/08 08:55:18;;;;;;;7.70;5.87;;;6.60;99.90;;;;;;5117740;28;20207;-43
2023/12/08 08:57:44;;;;;;;6.37;5.37;;;6.60;99.90;;;;;;5118220;28;20529;-43
2023/12/08 09:00:12;;;;;;;6.90;5.17;;;6.60;78.90;;;;;;5117672;28;20172;-43
2023/12/08 09:02:38;;;;;;;5.87;5.10;;;6.70;93.10;;;;;;5118834;28;20429;-41
2023/12/08 09:05:04;;;;;;;7.90;6.47;;;6.70;82.20;;;;;;5100594;28;20750;-42
2023/12/08 09:07:30;;;;;;;8.83;6.90;;;6.70;71.60;;;;;;5118143;28;20425;-41
2023/12/08 09:09:56;;;;;;;6.77;6.07;;;6.70;99.90;;;;;;5116039;28;20416;-41
2023/12/08 09:12:22;;;;;;;7.50;6.50;;;6.80;99.90;;;;;;5117287;28;20171;-41
2023/12/08 09:14:48;;;;;;;6.30;5.60;;;6.80;99.90;;;;;;5118012;28;20830;-42
2023/12/08 09:17:13;;;;;;;6.30;5.57;;;6.80;99.90;;;;;;5117832;28;20172;-41
2023/12/08 09:19:39;;;;;;;7.77;6.97;;;6.80;99.90;;;;;;5081970;28;20823;-42
2023/12/08 09:22:05;;;;;;;8.37;7.30;;;6.80;99.90;;;;;;5098828;28;20720;-42
2023/12/08 09:24:31;;;;;;;6.23;5.33;;;6.90;99.90;;;;;;5118638;28;20461;-40
2023/12/08 09:26:56;;;;;;;6.37;5.77;;;6.90;99.90;;;;;;5101161;28;20648;-40
2023/12/08 09:29:22;;;;;;;8.00;5.80;;;6.90;91.70;;;;;;5119215;28;20172;-40
2023/12/08 09:31:48;;;;;;;7.40;6.47;;;7.00;96.40;;;;;;5118401;28;20180;-40
2023/12/08 09:34:14;;;;;;;7.50;5.67;;;7.10;43.50;;;;;;5119563;28;20571;-42
2023/12/08 09:36:40;;;;;;;8.10;6.70;;;7.10;4.20;;;;;;5100441;28;20684;-41
2023/12/08 09:39:05;;;;;;;7.67;6.43;;;7.10;1.00;;;;;;5117026;28;20201;-40
2023/12/08 09:41:31;;;;;;;7.30;6.17;;;7.20;1.00;;;;;;5099783;28;20473;-39
2023/12/08 09:44:03;;;;;;;6.60;5.93;;;7.20;1.00;;;;;;5099863;28;20186;-41
2023/12/08 09:46:30;;;;;;;6.90;6.27;;;7.30;1.00;;;;;;5099648;28;20469;-41
2023/12/08 09:48:58;;;;;;;7.15;4.63;;;7.30;1.00;;;;;;5117414;28;20396;-40
2023/12/08 09:51:24;;;;;;;5.07;4.07;;;7.70;99.90;;;;;;5100568;28;20167;-37
2023/12/08 09:53:50;;;;;;;6.13;4.57;;;8.50;1.00;;;;;;5116140;28;20433;-38
2023/12/08 09:56:16;;;;;;;8.20;4.00;;;9.10;1.00;;;;;;5118106;28;20421;-39
2023/12/08 09:58:42;;;;;;;6.47;3.50;;;10.20;1.00;;;;;;5099371;28;20236;-39
2023/12/08 10:01:13;;;;;;;3.90;3.50;;;10.70;1.00;;;;;;5099878;28;20475;-40
2023/12/08 10:03:39;;;;;;;5.60;4.03;;;11.40;1.00;;;;;;5099031;28;20602;-42
2023/12/08 10:06:07;;;;;;;5.33;4.83;;;11.80;99.90;;;;;;5118308;28;20465;-42
2023/12/08 10:08:33;;;;;;;6.30;5.70;;;11.80;99.90;;;;;;5117908;28;20486;-42
2023/12/08 10:10:59;;;;;;;5.80;5.20;;;11.50;1.00;;;;;;5099375;28;20439;-43
2023/12/08 10:13:25;;;;;;;5.87;5.37;;;11.00;99.90;;;;;;5082953;28;20426;-43
2023/12/08 10:15:51;;;;;;;6.00;5.40;;;10.60;1.00;;;;;;5115788;28;20438;-40
2023/12/08 10:18:25;;;;;;;5.47;4.97;;;10.30;8.60;;;;;;5117303;28;20433;-42
2023/12/08 10:20:51;;;;;;;6.47;4.90;;;10.00;1.00;;;;;;5097648;28;20286;-41
2023/12/08 10:23:23;;;;;;;6.20;5.60;;;9.80;1.00;;;;;;5097001;28;20516;-41
2023/12/08 10:25:49;;;;;;;6.37;5.67;;;9.60;99.90;;;;;;5114678;28;20476;-43
2023/12/08 10:28:14;;;;;;;5.80;5.23;;;9.40;99.90;;;;;;5115872;28;20585;-42
2023/12/08 10:30:48;;;;;;;6.73;5.57;;;9.30;1.00;;;;;;5096539;28;20486;-44
2023/12/08 10:33:20;;;;;;;5.20;4.70;;;9.20;1.00;;;;;;5114222;28;20459;-41
2023/12/08 10:35:46;;;;;;;5.90;5.00;;;9.10;1.00;;;;;;5096614;28;20580;-42
2023/12/08 10:38:15;;;;;;;5.70;5.10;;;9.00;1.00;;;;;;5115913;28;20596;-42
2023/12/08 10:40:52;;;;;;;6.00;5.40;;;9.00;1.00;;;;;;5096934;28;20530;-41
2023/12/08 10:43:28;;;;;;;5.80;5.00;;;8.90;63.90;;;;;;5112518;28;20895;-43
2023/12/08 10:45:54;;;;;;;4.97;4.47;;;8.90;99.90;;;;;;5095694;28;20617;-43
2023/12/08 10:48:20;;;;;;;5.00;4.50;;;8.90;99.90;;;;;;5077949;28;20421;-41
2023/12/08 10:50:50;;;;;;;5.67;4.07;;;8.90;99.90;;;;;;5114332;28;20847;-41
2023/12/08 10:53:17;;;;;;;5.17;4.67;;;9.00;99.90;;;;;;5114369;28;20413;-50
2023/12/08 10:55:44;;;;;;;5.17;4.67;;;9.00;99.90;;;;;;5095389;28;20467;-41
2023/12/08 10:58:14;;;;;;;6.27;5.20;;;9.10;99.90;;;;;;5076112;28;20407;-42
2023/12/08 11:00:40;;;;;;;5.27;4.77;;;9.20;1.00;;;;;;5076524;28;20820;-42
2023/12/08 11:03:08;;;;;;;4.70;4.17;;;9.40;1.00;;;;;;5093737;28;20422;-41
2023/12/08 11:05:45;;;;;;;5.73;4.90;;;9.60;99.90;;;;;;5075661;28;20215;-42
2023/12/08 11:08:13;;;;;;;4.97;4.30;;;9.80;1.00;;;;;;5095017;28;20418;-43
2023/12/08 11:10:42;;;;;;;4.43;4.03;;;9.90;99.90;;;;;;5076065;28;20419;-43
2023/12/08 11:13:28;;;;;;;5.67;4.30;;;10.00;99.90;;;;;;5095072;28;20501;-43
2023/12/08 11:16:12;;;;;;;4.20;3.80;;;10.10;1.00;;;;;;5074792;28;20466;-41
2023/12/08 11:18:41;;;;;;;4.20;3.73;;;10.10;1.00;;;;;;5094695;28;20792;-43
2023/12/08 11:21:08;;;;;;;4.10;3.60;;;10.10;1.00;;;;;;5093814;28;20422;-46
2023/12/08 11:23:35;;;;;;;6.33;3.77;;;10.10;1.00;;;;;;5074127;28;20437;-41
2023/12/08 11:26:31;;;;;;;4.23;3.80;;;10.10;1.00;;;;;;5073093;28;20473;-41
2023/12/08 11:28:56;;;;;;;5.20;3.50;;;10.10;1.00;;;;;;5089274;28;20467;-40
2023/12/08 11:31:42;;;;;;;5.77;3.80;;;10.00;1.00;;;;;;5089167;28;20550;-40
2023/12/08 11:34:20;;;;;;;3.87;3.47;;;9.90;1.00;;;;;;5072741;28;20215;-44
2023/12/08 11:36:46;;;;;;;3.40;3.10;;;9.80;1.00;;;;;;5075025;28;20742;-40
2023/12/08 11:39:30;;;;;;;4.40;4.00;;;9.80;93.40;;;;;;5092421;28;20433;-40
2023/12/08 11:41:56;;;;;;;3.60;3.27;;;9.70;99.90;;;;;;5092254;28;20172;-41
2023/12/08 11:44:22;;;;;;;3.90;3.50;;;9.70;99.90;;;;;;5093350;28;20685;-42
2023/12/08 11:46:51;;;;;;;4.73;3.57;;;9.60;99.90;;;;;;5074567;28;20458;-40
2023/12/08 11:49:17;;;;;;;3.37;3.07;;;9.60;1.00;;;;;;5077002;28;20414;-40
2023/12/08 11:52:05;;;;;;;4.70;3.37;;;9.60;1.00;;;;;;5094734;28;20489;-41
2023/12/08 11:55:00;;;;;;;3.80;3.37;;;9.60;73.90;;;;;;5094988;28;20164;-43
2023/12/08 11:57:26;;;;;;;4.30;3.73;;;9.60;99.90;;;;;;5095327;28;20418;-40
2023/12/08 11:59:51;;;;;;;5.20;3.77;;;9.70;99.90;;;;;;5076646;28;20720;-39
2023/12/08 12:02:17;;;;;;;3.50;3.13;;;9.80;50.10;;;;;;5093618;28;20406;-41
2023/12/08 12:04:43;;;;;;;6.23;4.60;;;9.90;1.00;;;;;;5093579;28;20180;-42
2023/12/08 12:07:09;;;;;;;3.73;3.17;;;9.90;1.00;;;;;;5091805;28;20187;-42
2023/12/08 12:09:35;;;;;;;4.37;3.60;;;9.90;1.00;;;;;;5092664;28;20439;-40
2023/12/08 12:12:12;;;;;;;4.13;3.30;;;9.90;52.20;;;;;;5093653;28;20172;-43
2023/12/08 12:14:43;;;;;;;4.47;3.63;;;9.80;1.00;;;;;;5074662;28;20424;-42
2023/12/08 12:17:10;;;;;;;3.30;2.97;;;9.80;6.10;;;;;;5073895;28;20685;-42
2023/12/08 12:19:36;;;;;;;2.87;2.57;;;9.80;99.90;;;;;;5092396;28;20499;-45
2023/12/08 12:22:04;;;;;;;2.90;2.60;;;9.80;55.90;;;;;;5091137;28;20998;-42
2023/12/08 12:24:30;;;;;;;3.30;3.00;;;9.80;79.10;;;;;;5092687;28;20429;-43
2023/12/08 12:26:56;;;;;;;3.03;2.70;;;9.90;43.60;;;;;;5075843;28;20450;-43
2023/12/08 12:29:23;;;;;;;3.20;2.80;;;9.90;1.00;;;;;;5075207;28;20189;-44
2023/12/08 12:31:48;;;;;;;2.53;2.33;;;9.90;1.00;;;;;;5093519;28;20422;-43
2023/12/08 12:34:15;;;;;;;3.93;3.40;;;9.90;1.00;;;;;;5073322;28;20501;-41
2023/12/08 12:36:41;;;;;;;3.03;2.73;;;9.90;1.00;;;;;;5090981;28;20215;-43
2023/12/08 12:39:07;;;;;;;4.40;2.63;;;9.80;1.00;;;;;;5092390;28;20713;-41
2023/12/08 12:41:33;;;;;;;4.30;3.27;;;9.80;61.70;;;;;;5058187;28;20192;-40
2023/12/08 12:44:01;;;;;;;2.40;2.20;;;9.60;99.90;;;;;;5071963;28;20410;-40
2023/12/08 12:46:27;;;;;;;2.90;2.60;;;9.70;99.90;;;;;;5073048;28;20481;-41
2023/12/08 12:48:53;;;;;;;4.00;3.60;;;9.70;99.90;;;;;;5091709;28;20426;-42
2023/12/08 12:51:33;;;;;;;3.60;2.47;;;9.70;99.90;;;;;;5074982;28;20411;-40
2023/12/08 12:53:59;;;;;;;3.17;2.87;;;9.70;99.90;;;;;;5076851;28;20422;-40
2023/12/08 12:56:25;;;;;;;3.27;2.93;;;9.70;99.90;;;;;;5077413;28;20418;-43
2023/12/08 12:59:08;;;;;;;3.33;3.03;;;9.70;99.90;;;;;;5076682;28;20852;-40